createdAt,value
2022-08-04T00:01:07.913Z,100246.13
2022-08-04T00:03:34.130Z,100244.78
2022-08-04T00:06:00.319Z,100241.13
2022-08-04T00:08:26.524Z,100246.44
2022-08-04T00:10:52.691Z,100232.13
2022-08-04T00:13:18.880Z,100240.28
2022-08-04T00:15:47.015Z,100241.28
2022-08-04T00:18:13.164Z,100243.78
2022-08-04T00:20:39.339Z,100245.44
2022-08-04T00:23:05.528Z,100243.09
2022-08-04T00:25:31.691Z,100245.06
2022-08-04T00:27:57.838Z,100246.38
2022-08-04T00:30:24.041Z,100245.53
2022-08-04T00:32:50.236Z,100253.19
2022-08-04T00:35:16.413Z,100246.38
2022-08-04T00:37:42.616Z,100254.66
2022-08-04T00:40:08.767Z,100241.16
2022-08-04T00:42:35.113Z,100239.47
2022-08-04T00:45:01.291Z,100241.06
2022-08-04T00:47:30.026Z,100241.63
2022-08-04T00:49:56.177Z,100237.31
2022-08-04T00:52:31.690Z,100243.22
2022-08-04T00:54:59.657Z,100230.56
2022-08-04T00:57:33.790Z,100239.66
2022-08-04T01:00:00.902Z,100250.75
2022-08-04T01:02:27.090Z,100242.16
2022-08-04T01:04:53.264Z,100250.19
2022-08-04T01:07:19.581Z,100249.66
2022-08-04T01:09:45.870Z,100246.75
2022-08-04T01:12:12.020Z,100256.84
2022-08-04T01:14:38.210Z,100256.75
2022-08-04T01:17:04.354Z,100259.41
2022-08-04T01:19:30.539Z,100259.16
2022-08-04T01:21:56.716Z,100253.84
2022-08-04T01:24:22.862Z,100258.47
2022-08-04T01:26:53.687Z,100257.38
2022-08-04T01:29:24.266Z,100249.28
2022-08-04T01:31:53.616Z,100250.53
2022-08-04T01:34:19.799Z,100253.59
2022-08-04T01:36:50.019Z,100259.50
2022-08-04T01:39:16.581Z,100248.47
2022-08-04T01:41:57.935Z,100242.66
2022-08-04T01:44:24.743Z,100255.09
2022-08-04T01:46:50.912Z,100246.16
2022-08-04T01:49:17.086Z,100243.38
2022-08-04T01:51:43.258Z,100246.22
2022-08-04T01:54:09.423Z,100249.44
2022-08-04T01:56:35.587Z,100252.34
2022-08-04T01:59:01.793Z,100251.41
2022-08-04T02:01:27.986Z,100248.75
2022-08-04T02:04:20.460Z,100246.25
2022-08-04T02:06:40.357Z,100235.78
2022-08-04T02:09:06.517Z,100236.28
2022-08-04T02:11:32.670Z,100229.47
2022-08-04T02:13:58.831Z,100230.31
2022-08-04T02:16:24.996Z,100221.13
2022-08-04T02:18:51.168Z,100223.75
2022-08-04T02:21:17.330Z,100224.91
2022-08-04T02:23:43.484Z,100225.44
2022-08-04T02:26:12.594Z,100221.97
2022-08-04T02:28:48.605Z,100218.47
2022-08-04T02:31:14.791Z,100217.06
2022-08-04T02:33:40.935Z,100219.59
2022-08-04T02:36:07.090Z,100213.75
2022-08-04T02:38:33.272Z,100216.22
2022-08-04T02:41:00.530Z,100221.81
2022-08-04T02:43:51.758Z,100214.28
2022-08-04T02:46:17.729Z,100215.53
2022-08-04T02:48:44.440Z,100219.47
2022-08-04T02:51:10.595Z,100211.94
2022-08-04T02:53:36.767Z,100218.50
2022-08-04T02:56:02.938Z,100215.56
2022-08-04T02:58:29.222Z,100213.34
2022-08-04T03:00:55.463Z,100208.31
2022-08-04T03:03:21.667Z,100210.00
2022-08-04T03:05:50.046Z,100217.41
2022-08-04T03:08:27.485Z,100212.53
2022-08-04T03:10:53.623Z,100214.31
2022-08-04T03:13:20.444Z,100214.59
2022-08-04T03:15:46.621Z,100218.91
2022-08-04T03:18:12.773Z,100219.59
2022-08-04T03:20:38.965Z,100221.16
2022-08-04T03:23:13.761Z,100222.25
2022-08-04T03:25:56.699Z,100221.16
2022-08-04T03:28:23.051Z,100224.50
2022-08-04T03:30:49.246Z,100226.72
2022-08-04T03:33:15.426Z,100227.56
2022-08-04T03:35:41.586Z,100223.94
2022-08-04T03:38:07.773Z,100229.94
2022-08-04T03:40:33.955Z,100231.59
2022-08-04T03:43:00.125Z,100233.41
2022-08-04T03:45:26.281Z,100235.38
2022-08-04T03:47:52.528Z,100236.88
2022-08-04T03:50:18.697Z,100226.44
2022-08-04T03:52:45.494Z,100231.88
2022-08-04T03:55:13.600Z,100229.38
2022-08-04T03:57:39.771Z,100229.81
2022-08-04T04:00:05.912Z,100236.75
2022-08-04T04:02:32.127Z,100234.13
2022-08-04T04:04:58.347Z,100237.91
2022-08-04T04:07:31.869Z,100239.13
2022-08-04T04:10:06.006Z,100249.88
2022-08-04T04:12:33.280Z,100243.72
2022-08-04T04:14:59.437Z,100244.88
2022-08-04T04:17:25.652Z,100248.22
2022-08-04T04:19:51.828Z,100246.38
2022-08-04T04:22:24.883Z,100242.34
2022-08-04T04:24:51.063Z,100243.19
2022-08-04T04:27:17.218Z,100251.53
2022-08-04T04:29:43.371Z,100251.97
2022-08-04T04:32:09.542Z,100245.09
2022-08-04T04:34:35.709Z,100249.47
2022-08-04T04:37:01.865Z,100256.56
2022-08-04T04:39:28.091Z,100252.09
2022-08-04T04:41:54.352Z,100259.22
2022-08-04T04:44:20.554Z,100264.81
2022-08-04T04:46:46.730Z,100265.78
2022-08-04T04:49:12.908Z,100272.75
2022-08-04T04:51:41.117Z,100274.28
2022-08-04T04:54:07.299Z,100274.97
2022-08-04T04:56:33.490Z,100278.16
2022-08-04T04:58:59.664Z,100282.31
2022-08-04T05:01:27.442Z,100281.16
2022-08-04T05:03:53.601Z,100278.91
2022-08-04T05:06:19.761Z,100276.50
2022-08-04T05:08:48.217Z,100269.75
2022-08-04T05:11:17.338Z,100271.16
2022-08-04T05:14:39.067Z,100280.94
2022-08-04T05:16:29.684Z,100285.66
2022-08-04T05:18:55.849Z,100285.06
2022-08-04T05:21:22.039Z,100283.09
2022-08-04T05:23:48.247Z,100288.66
2022-08-04T05:26:14.430Z,100286.38
2022-08-04T05:28:40.583Z,100292.31
2022-08-04T05:31:06.749Z,100290.44
2022-08-04T05:33:32.908Z,100298.88
2022-08-04T05:36:18.553Z,100293.69
2022-08-04T05:38:45.220Z,100287.84
2022-08-04T05:41:11.797Z,100284.94
2022-08-04T05:43:37.961Z,100286.06
2022-08-04T05:46:04.118Z,100287.25
2022-08-04T05:48:30.287Z,100291.63
2022-08-04T05:51:00.386Z,100291.78
2022-08-04T05:53:27.256Z,100291.97
2022-08-04T05:55:58.810Z,100297.91
2022-08-04T05:58:25.933Z,100297.16
2022-08-04T06:00:52.636Z,100287.88
2022-08-04T06:03:18.897Z,100286.34
2022-08-04T06:05:45.087Z,100279.66
2022-08-04T06:08:13.479Z,100288.94
2022-08-04T06:10:40.258Z,100286.56
2022-08-04T06:13:06.436Z,100287.66
2022-08-04T06:15:32.612Z,100280.53
2022-08-04T06:19:57.815Z,100281.38
2022-08-04T06:20:49.906Z,100279.09
2022-08-04T06:23:16.478Z,100279.28
2022-08-04T06:25:42.626Z,100282.00
2022-08-04T06:28:08.786Z,100281.81
2022-08-04T06:30:34.969Z,100275.81
2022-08-04T06:33:03.925Z,100285.25
2022-08-04T06:35:31.239Z,100278.16
2022-08-04T06:38:00.770Z,100275.81
2022-08-04T06:40:31.122Z,100275.41
2022-08-04T06:42:58.300Z,100272.94
2022-08-04T06:45:24.456Z,100278.81
2022-08-04T06:47:50.651Z,100278.59
2022-08-04T06:51:27.333Z,100288.34
2022-08-04T06:53:02.984Z,100278.53
2022-08-04T06:55:29.161Z,100286.09
2022-08-04T06:57:57.474Z,100283.88
2022-08-04T07:00:27.172Z,100285.00
2022-08-04T07:02:53.336Z,100289.41
2022-08-04T07:05:19.556Z,100284.53
2022-08-04T07:07:56.745Z,100288.94
2022-08-04T07:10:23.959Z,100276.97
2022-08-04T07:12:50.122Z,100279.72
2022-08-04T07:15:19.969Z,100289.94
2022-08-04T07:17:46.147Z,100283.16
2022-08-04T07:20:15.901Z,100281.13
2022-08-04T07:23:01.354Z,100278.44
2022-08-04T07:26:01.029Z,100276.00
2022-08-04T07:28:13.698Z,100270.41
2022-08-04T07:30:39.875Z,100272.88
2022-08-04T07:33:06.058Z,100275.38
2022-08-04T07:36:04.393Z,100272.91
2022-08-04T07:38:19.526Z,100271.03
2022-08-04T07:40:53.809Z,100275.16
2022-08-04T07:43:19.987Z,100273.94
2022-08-04T07:45:46.195Z,100273.91
2022-08-04T07:48:12.744Z,100282.63
2022-08-04T07:50:38.935Z,100274.56
2022-08-04T07:53:53.502Z,100272.25
2022-08-04T07:55:51.316Z,100283.69
2022-08-04T07:58:17.494Z,100278.28
2022-08-04T08:00:43.697Z,100282.59
2022-08-04T08:03:09.926Z,100283.78
2022-08-04T08:05:36.157Z,100270.47
2022-08-04T08:08:22.308Z,100268.00
2022-08-04T08:10:48.502Z,100271.09
2022-08-04T08:13:14.701Z,100275.22
2022-08-04T08:15:40.857Z,100277.88
2022-08-04T08:18:07.041Z,100273.22
2022-08-04T08:20:33.334Z,100275.75
2022-08-04T08:22:59.626Z,100267.97
2022-08-04T08:25:25.891Z,100271.03
2022-08-04T08:27:56.477Z,100271.22
2022-08-04T08:30:22.970Z,100267.44
2022-08-04T08:32:49.604Z,100270.91
2022-08-04T08:35:15.878Z,100269.88
2022-08-04T08:37:42.393Z,100266.88
2022-08-04T08:40:08.613Z,100267.06
2022-08-04T08:42:34.800Z,100273.66
2022-08-04T08:45:00.956Z,100264.75
2022-08-04T08:47:27.134Z,100269.56
2022-08-04T08:50:00.171Z,100268.00
2022-08-04T08:53:01.013Z,100263.59
2022-08-04T08:55:13.636Z,100264.13
2022-08-04T08:57:59.425Z,100259.78
2022-08-04T09:00:31.613Z,100262.94
2022-08-04T09:03:04.054Z,100267.38
2022-08-04T09:05:31.500Z,100264.00
2022-08-04T09:07:57.704Z,100262.94
2022-08-04T09:10:23.916Z,100260.78
2022-08-04T09:12:50.098Z,100265.31
2022-08-04T09:15:16.304Z,100262.50
2022-08-04T09:17:42.456Z,100256.41
2022-08-04T09:20:08.622Z,100255.19
2022-08-04T09:22:34.833Z,100260.28
2022-08-04T09:25:01.005Z,100263.22
2022-08-04T09:27:27.172Z,100260.81
2022-08-04T09:29:53.391Z,100260.31
2022-08-04T09:32:19.557Z,100263.50
2022-08-04T09:34:45.731Z,100261.31
2022-08-04T09:37:11.912Z,100257.72
2022-08-04T09:39:38.134Z,100265.59
2022-08-04T09:42:07.335Z,100258.72
2022-08-04T09:44:50.313Z,100258.97
2022-08-04T09:47:20.323Z,100253.31
2022-08-04T09:49:46.577Z,100260.78
2022-08-04T09:52:12.742Z,100246.75
2022-08-04T09:54:39.020Z,100245.00
2022-08-04T09:57:05.191Z,100245.97
2022-08-04T09:59:31.390Z,100244.22
2022-08-04T10:01:58.947Z,100245.97
2022-08-04T10:04:26.332Z,100241.44
2022-08-04T10:06:52.509Z,100239.69
2022-08-04T10:09:18.683Z,100243.84
2022-08-04T10:11:54.569Z,100240.28
2022-08-04T10:14:23.243Z,100242.44
2022-08-04T10:16:49.636Z,100235.22
2022-08-04T10:19:15.948Z,100229.91
2022-08-04T10:21:50.582Z,100231.88
2022-08-04T10:24:25.959Z,100228.78
2022-08-04T10:26:56.864Z,100232.31
2022-08-04T10:29:23.599Z,100228.09
2022-08-04T10:31:49.780Z,100223.34
2022-08-04T10:34:15.959Z,100220.63
2022-08-04T10:36:42.152Z,100220.28
2022-08-04T10:39:08.386Z,100214.72
2022-08-04T10:41:38.563Z,100216.22
2022-08-04T10:44:04.761Z,100217.38
2022-08-04T10:46:30.935Z,100207.00
2022-08-04T10:48:57.105Z,100215.50
2022-08-04T10:51:23.276Z,100201.59
2022-08-04T10:53:49.711Z,100213.63
2022-08-04T10:59:06.037Z,100202.66
2022-08-04T11:02:02.110Z,100203.31
2022-08-04T11:04:27.283Z,100196.34
2022-08-04T11:06:54.184Z,100194.91
2022-08-04T11:09:20.545Z,100198.22
2022-08-04T11:12:00.458Z,100196.00
2022-08-04T11:14:28.057Z,100195.00
2022-08-04T11:16:54.211Z,100198.97
2022-08-04T11:19:20.388Z,100195.09
2022-08-04T11:21:46.559Z,100193.13
2022-08-04T11:24:12.722Z,100194.78
2022-08-04T11:26:38.917Z,100192.22
2022-08-04T11:29:08.949Z,100188.00
2022-08-04T11:31:42.488Z,100197.53
2022-08-04T11:34:08.693Z,100188.16
2022-08-04T11:36:34.891Z,100194.00
2022-08-04T11:39:01.100Z,100184.22
2022-08-04T11:41:27.331Z,100187.19
2022-08-04T11:44:02.701Z,100178.44
2022-08-04T11:46:30.328Z,100176.63
2022-08-04T11:48:56.903Z,100179.03
2022-08-04T11:51:23.095Z,100181.81
2022-08-04T11:53:49.279Z,100183.16
2022-08-04T11:56:36.558Z,100181.50
2022-08-04T11:59:01.638Z,100178.97
2022-08-04T12:01:27.834Z,100176.38
2022-08-04T12:04:03.717Z,100178.91
2022-08-04T12:06:30.282Z,100176.00
2022-08-04T12:08:56.470Z,100167.16
2022-08-04T12:11:22.653Z,100161.06
2022-08-04T12:13:48.890Z,100160.75
2022-08-04T12:16:15.051Z,100162.94
2022-08-04T12:18:41.255Z,100159.53
2022-08-04T12:21:07.485Z,100153.88
2022-08-04T12:23:35.882Z,100145.91
2022-08-04T12:26:02.076Z,100142.06
2022-08-04T12:28:31.303Z,100147.59
2022-08-04T12:31:08.427Z,100142.91
2022-08-04T12:34:03.067Z,100139.66
2022-08-04T12:36:23.576Z,100147.41
2022-08-04T12:38:49.796Z,100139.88
2022-08-04T12:41:15.960Z,100137.16
2022-08-04T12:43:42.239Z,100145.28
2022-08-04T12:46:08.433Z,100143.16
2022-08-04T12:48:34.600Z,100139.03
2022-08-04T12:51:01.366Z,100136.97
2022-08-04T12:53:31.872Z,100140.03
2022-08-04T12:56:01.709Z,100138.72
2022-08-04T12:58:43.014Z,100134.75
2022-08-04T13:02:07.512Z,100127.03
2022-08-04T13:03:56.328Z,100132.00
2022-08-04T13:06:23.419Z,100126.31
2022-08-04T13:08:49.736Z,100137.84
2022-08-04T13:11:15.930Z,100128.41
2022-08-04T13:13:42.104Z,100122.81
2022-08-04T13:16:08.656Z,100121.13
2022-08-04T13:18:39.320Z,100122.00
2022-08-04T13:21:06.019Z,100111.59
2022-08-04T13:24:09.949Z,100109.59
2022-08-04T13:26:42.739Z,100105.59
2022-08-04T13:29:18.083Z,100091.47
2022-08-04T13:31:44.262Z,100098.53
2022-08-04T13:34:19.494Z,100085.75
2022-08-04T13:36:45.888Z,100079.34
2022-08-04T13:39:12.191Z,100076.97
2022-08-04T13:41:38.500Z,100071.41
2022-08-04T13:44:17.736Z,100067.25
2022-08-04T13:46:50.737Z,100080.16
2022-08-04T13:49:31.263Z,100073.66
2022-08-04T13:52:04.638Z,100067.06
2022-08-04T13:54:42.350Z,100070.53
2022-08-04T13:57:09.397Z,100066.16
2022-08-04T13:59:35.568Z,100055.00
2022-08-04T14:02:01.760Z,100053.41
2022-08-04T14:04:27.944Z,100044.63
2022-08-04T14:06:54.147Z,100045.50
2022-08-04T14:09:20.293Z,100040.63
2022-08-04T14:12:09.268Z,100041.78
2022-08-04T14:14:32.649Z,100039.97
2022-08-04T14:16:58.815Z,100036.91
2022-08-04T14:19:30.637Z,100038.28
2022-08-04T14:22:02.194Z,100035.34
2022-08-04T14:24:28.381Z,100027.13
2022-08-04T14:26:54.547Z,100024.84
2022-08-04T14:29:27.302Z,100020.78
2022-08-04T14:31:56.530Z,100016.06
2022-08-04T14:34:24.978Z,100015.50
2022-08-04T14:37:16.517Z,100011.13
2022-08-04T14:39:38.684Z,100011.00
2022-08-04T14:42:04.944Z,100011.09
2022-08-04T14:44:31.139Z,100011.09
2022-08-04T14:46:57.345Z,100003.72
2022-08-04T14:49:23.497Z,100005.06
2022-08-04T14:51:49.667Z,100005.16
2022-08-04T14:54:18.351Z,100006.25
2022-08-04T14:56:47.151Z,100005.47
2022-08-04T14:59:13.673Z,100005.50
2022-08-04T15:01:39.922Z,99992.63
2022-08-04T15:04:06.118Z,99998.56
2022-08-04T15:06:32.295Z,100007.66
2022-08-04T15:08:58.481Z,99998.28
2022-08-04T15:11:24.856Z,99998.78
2022-08-04T15:13:51.157Z,99997.97
2022-08-04T15:16:17.360Z,99998.63
2022-08-04T15:18:43.574Z,99995.13
2022-08-04T15:21:15.578Z,99993.00
2022-08-04T15:23:41.770Z,99987.97
2022-08-04T15:26:07.941Z,99986.53
2022-08-04T15:28:34.134Z,99995.91
2022-08-04T15:31:00.295Z,99993.78
2022-08-04T15:33:28.982Z,99990.84
2022-08-04T15:36:00.439Z,99992.59
2022-08-04T15:38:27.833Z,99986.59
2022-08-04T15:40:57.390Z,99983.63
2022-08-04T15:43:23.584Z,99987.63
2022-08-04T15:46:33.275Z,99984.38
2022-08-04T15:48:35.941Z,99983.06
2022-08-04T15:51:02.130Z,99980.72
2022-08-04T15:54:01.334Z,99980.50
2022-08-04T15:56:14.502Z,99969.34
2022-08-04T15:58:40.694Z,99967.41
2022-08-04T16:01:06.899Z,99961.13
2022-08-04T16:03:59.302Z,99967.59
2022-08-04T16:06:19.268Z,99959.69
2022-08-04T16:08:45.498Z,99953.84
2022-08-04T16:11:30.831Z,99959.94
2022-08-04T16:13:58.116Z,99950.66
2022-08-04T16:16:24.298Z,99951.22
2022-08-04T16:18:50.493Z,99950.66
2022-08-04T16:21:16.706Z,99943.84
2022-08-04T16:23:55.167Z,99943.81
2022-08-04T16:26:30.664Z,99947.63
2022-08-04T16:28:57.027Z,99947.50
2022-08-04T16:31:23.214Z,99932.06
2022-08-04T16:33:49.397Z,99938.50
2022-08-04T16:36:35.547Z,99938.75
2022-08-04T16:39:01.748Z,99930.78
2022-08-04T16:41:27.935Z,99933.19
2022-08-04T16:43:54.109Z,99927.78
2022-08-04T16:46:22.115Z,99941.22
2022-08-04T16:48:48.796Z,99939.13
2022-08-04T16:51:14.964Z,99929.50
2022-08-04T16:53:53.703Z,99927.22
2022-08-04T16:56:27.281Z,99937.69
2022-08-04T16:58:54.331Z,99926.09
2022-08-04T17:01:32.115Z,99930.88
2022-08-04T17:04:00.093Z,99931.47
2022-08-04T17:06:26.277Z,99932.44
2022-08-04T17:08:52.444Z,99930.63
2022-08-04T17:11:18.602Z,99930.41
2022-08-04T17:14:01.811Z,99927.25
2022-08-04T17:16:30.233Z,99930.38
2022-08-04T17:18:56.424Z,99926.94
2022-08-04T17:21:22.566Z,99926.84
2022-08-04T17:24:15.445Z,99925.28
2022-08-04T17:26:39.885Z,99923.06
2022-08-04T17:29:08.261Z,99919.66
2022-08-04T17:31:35.117Z,99924.63
2022-08-04T17:34:01.285Z,99920.06
2022-08-04T17:36:28.315Z,99917.81
2022-08-04T17:38:54.651Z,99919.91
2022-08-04T17:41:27.106Z,99926.97
2022-08-04T17:44:03.505Z,99922.88
2022-08-04T17:46:31.609Z,99925.97
2022-08-04T17:48:57.851Z,99924.00
2022-08-04T17:52:02.487Z,99921.28
2022-08-04T17:54:10.674Z,99918.59
2022-08-04T17:56:43.107Z,99918.75
2022-08-04T17:59:55.664Z,99909.53
2022-08-04T18:02:05.712Z,99913.00
2022-08-04T18:04:35.183Z,99916.88
2022-08-04T18:07:01.959Z,99912.84
2022-08-04T18:09:57.863Z,99916.84
2022-08-04T18:12:14.973Z,99922.59
2022-08-04T18:14:41.199Z,99923.41
2022-08-04T18:18:19.774Z,99920.94
2022-08-04T18:19:55.484Z,99929.25
2022-08-04T18:22:28.165Z,99930.00
2022-08-04T18:24:55.726Z,99932.41
2022-08-04T18:27:23.311Z,99928.28
2022-08-04T18:30:15.449Z,99937.50
2022-08-04T18:32:36.291Z,99939.50
2022-08-04T18:35:05.355Z,99937.44
2022-08-04T18:38:05.207Z,99938.34
2022-08-04T18:40:29.837Z,99944.53
2022-08-04T18:42:57.518Z,99936.53
2022-08-04T18:45:34.679Z,99936.94
2022-08-04T18:48:14.644Z,99945.38
2022-08-04T18:51:09.777Z,99945.72
2022-08-04T18:53:34.940Z,99943.91
2022-08-04T18:56:02.073Z,99938.72
2022-08-04T18:58:28.237Z,99942.38
2022-08-04T19:00:54.417Z,99947.03
2022-08-04T19:06:07.663Z,99945.34
2022-08-04T19:08:42.229Z,99954.47
2022-08-04T19:11:36.887Z,99956.59
2022-08-04T19:13:58.446Z,99950.84
2022-08-04T19:16:24.922Z,99961.22
2022-08-04T19:18:51.086Z,99965.75
2022-08-04T19:21:17.890Z,99963.06
2022-08-04T19:24:26.875Z,99962.22
2022-08-04T19:26:30.960Z,99964.34
2022-08-04T19:28:58.370Z,99967.84
2022-08-04T19:31:34.131Z,99966.78
2022-08-04T19:34:07.297Z,99972.75
2022-08-04T19:36:33.734Z,99980.41
2022-08-04T19:39:00.083Z,99975.22
2022-08-04T19:41:26.745Z,99982.44
2022-08-04T19:43:53.214Z,99985.13
2022-08-04T19:46:19.438Z,99988.25
2022-08-04T19:48:58.124Z,99981.81
2022-08-04T19:51:27.793Z,99980.56
2022-08-04T19:53:59.191Z,99982.19
2022-08-04T19:56:30.453Z,99979.50
2022-08-04T19:59:10.576Z,99986.28
2022-08-04T20:01:44.021Z,99981.72
2022-08-04T20:04:11.642Z,99984.16
2022-08-04T20:06:38.888Z,99990.16
2022-08-04T20:09:24.420Z,99992.19
2022-08-04T20:11:51.346Z,99993.19
2022-08-04T20:14:19.145Z,99996.06
2022-08-04T20:16:49.089Z,99991.75
2022-08-04T20:19:15.391Z,100000.84
2022-08-04T20:21:55.198Z,100004.09
2022-08-04T20:24:39.429Z,100002.66
2022-08-04T20:27:11.661Z,100003.31
2022-08-04T20:29:43.289Z,100003.94
2022-08-04T20:32:12.371Z,100009.28
2022-08-04T20:34:41.619Z,100004.56
2022-08-04T20:37:07.823Z,100006.38
2022-08-04T20:39:36.721Z,100005.75
2022-08-04T20:42:02.903Z,100013.94
2022-08-04T20:44:29.100Z,100012.69
2022-08-04T20:46:55.265Z,100019.03
2022-08-04T20:49:21.454Z,100011.28
2022-08-04T20:52:04.888Z,100009.38
2022-08-04T20:54:38.420Z,100017.44
2022-08-04T20:57:04.564Z,100024.75
2022-08-04T20:59:31.140Z,100022.59
2022-08-04T21:01:57.466Z,100029.06
2022-08-04T21:07:11.334Z,100021.22
2022-08-04T21:09:50.650Z,100019.75
2022-08-04T21:12:28.566Z,100016.63
2022-08-04T21:14:55.213Z,100020.31
2022-08-04T21:20:13.895Z,100021.75
2022-08-04T21:22:40.227Z,100031.44
2022-08-04T21:25:06.799Z,100025.19
2022-08-04T21:27:35.746Z,100026.28
2022-08-04T21:30:05.673Z,100025.00
2022-08-04T21:32:50.476Z,100026.78
2022-08-04T21:35:18.277Z,100023.03
2022-08-04T21:37:56.580Z,100034.13
2022-08-04T21:40:32.664Z,100026.72
2022-08-04T21:43:02.970Z,100033.31
2022-08-04T21:45:36.319Z,100029.81
2022-08-04T21:48:04.356Z,100036.16
2022-08-04T21:50:30.903Z,100034.50
2022-08-04T21:52:57.079Z,100030.81
2022-08-04T21:55:25.182Z,100036.53
2022-08-04T21:58:11.314Z,100035.47
2022-08-04T22:00:39.733Z,100038.16
2022-08-04T22:03:05.960Z,100038.06
2022-08-04T22:05:42.832Z,100034.88
2022-08-04T22:08:19.934Z,100037.59
2022-08-04T22:10:49.713Z,100041.53
2022-08-04T22:13:22.723Z,100037.91
2022-08-04T22:16:04.523Z,100037.97
2022-08-04T22:18:31.837Z,100039.47
2022-08-04T22:21:02.895Z,100032.22
2022-08-04T22:23:29.092Z,100026.78
2022-08-04T22:25:58.309Z,100027.97
2022-08-04T22:28:25.461Z,100029.22
2022-08-04T22:30:54.834Z,100036.66
2022-08-04T22:33:22.991Z,100035.94
2022-08-04T22:35:49.923Z,100033.56
2022-08-04T22:38:28.948Z,100028.81
2022-08-04T22:41:02.460Z,100031.16
2022-08-04T22:43:33.100Z,100040.56
2022-08-04T22:46:01.854Z,100028.22
2022-08-04T22:48:32.093Z,100033.94
2022-08-04T22:50:58.563Z,100034.31
2022-08-04T22:53:25.002Z,100042.75
2022-08-04T22:56:06.905Z,100048.69
2022-08-04T22:58:35.683Z,100049.94
2022-08-04T23:01:01.888Z,100040.53
2022-08-04T23:03:37.665Z,100052.53
2022-08-04T23:06:04.684Z,100060.31
2022-08-04T23:08:30.895Z,100061.03
2022-08-04T23:11:02.598Z,100066.47
2022-08-04T23:13:28.782Z,100064.72
2022-08-04T23:15:55.138Z,100071.66
2022-08-04T23:18:21.303Z,100055.03
2022-08-04T23:20:47.489Z,100052.38
2022-08-04T23:23:19.061Z,100048.88
2022-08-04T23:26:02.617Z,100052.00
2022-08-04T23:28:31.412Z,100071.59
2022-08-04T23:30:57.575Z,100088.72
2022-08-04T23:33:23.759Z,100092.59
2022-08-04T23:36:09.883Z,100088.81
2022-08-04T23:38:38.124Z,100106.56
2022-08-04T23:41:05.531Z,100114.19
2022-08-04T23:43:49.306Z,100124.56
2022-08-04T23:46:19.135Z,100138.44
2022-08-04T23:48:47.039Z,100141.59
2022-08-04T23:51:14.887Z,100150.47
2022-08-04T23:54:02.607Z,100159.59
2022-08-04T23:56:27.845Z,100161.22
2022-08-04T23:58:54.086Z,100168.69
